Time;durP1;ratioP1;P1;durP2;ratioP2;P2;SDS_P1;SDS_P2;PMS_P1;PMS_P2;Temp;Humidity;BMP_temperature;BMP_pressure;BME280_temperature;BME280_humidity;BME280_pressure;Samples;Min_cycle;Max_cycle;Signal;HPM_P1;HPM_P2
2022/12/20 00:02:04;;;;;;;2.57;2.37;;;10.40;99.90;;;;;;6140507;23;20525;-88
2022/12/20 00:04:29;;;;;;;3.13;2.23;;;10.40;99.90;;;;;;6164826;23;20170;-89
2022/12/20 00:06:55;;;;;;;1.73;1.27;;;10.40;99.90;;;;;;6165691;23;20180;-88
2022/12/20 00:09:21;;;;;;;3.47;3.07;;;10.40;99.90;;;;;;6139946;23;20669;-89
2022/12/20 00:11:46;;;;;;;2.23;1.37;;;10.40;99.90;;;;;;6164850;23;20252;-88
2022/12/20 00:14:12;;;;;;;1.90;1.80;;;10.40;99.90;;;;;;6140323;23;20194;-89
2022/12/20 00:16:38;;;;;;;8.00;2.20;;;10.40;99.90;;;;;;6140462;23;20158;-88
2022/12/20 00:19:05;;;;;;;3.03;1.60;;;10.40;99.90;;;;;;6165651;23;20154;-89
2022/12/20 00:21:33;;;;;;;3.37;1.83;;;10.40;99.90;;;;;;6164391;23;20221;-89
2022/12/20 00:23:59;;;;;;;1.60;1.50;;;10.40;99.90;;;;;;6164413;23;20209;-89
2022/12/20 00:26:28;;;;;;;2.73;1.87;;;10.50;99.90;;;;;;6164973;23;20247;-89
2022/12/20 00:28:54;;;;;;;3.87;1.47;;;10.50;99.90;;;;;;6189689;23;20636;-89
2022/12/20 00:31:22;;;;;;;9.50;1.83;;;10.50;99.90;;;;;;6189959;23;20158;-89
2022/12/20 00:33:50;;;;;;;3.80;1.47;;;10.50;99.90;;;;;;6190117;23;20196;-89
2022/12/20 00:36:17;;;;;;;2.90;2.07;;;10.50;99.90;;;;;;6165049;23;20620;-89
2022/12/20 00:38:47;;;;;;;1.67;1.57;;;10.50;99.90;;;;;;6190613;23;20204;-89
2022/12/20 00:41:19;;;;;;;2.30;1.67;;;10.50;99.90;;;;;;6191463;23;20205;-89
2022/12/20 00:43:45;;;;;;;2.20;1.93;;;10.50;99.90;;;;;;6191559;23;20189;-89
2022/12/20 00:46:13;;;;;;;2.60;1.43;;;10.50;99.90;;;;;;6192367;23;20237;-88
2022/12/20 00:48:39;;;;;;;2.20;2.00;;;10.50;99.90;;;;;;6166900;23;20230;-88
2022/12/20 00:51:08;;;;;;;2.13;2.03;;;10.50;99.90;;;;;;6166461;23;20690;-89
2022/12/20 00:53:35;;;;;;;1.90;1.80;;;10.50;99.90;;;;;;6191389;23;20193;-88
2022/12/20 00:56:00;;;;;;;1.87;1.43;;;10.50;99.90;;;;;;6142329;23;20626;-88
2022/12/20 00:58:27;;;;;;;1.23;1.13;;;10.60;99.90;;;;;;6166157;23;20164;-88
2022/12/20 01:00:53;;;;;;;2.13;1.50;;;10.50;99.90;;;;;;6191949;23;20190;-88
2022/12/20 01:03:19;;;;;;;1.63;1.57;;;10.60;99.90;;;;;;6166662;23;20522;-89
2022/12/20 01:05:53;;;;;;;1.77;1.67;;;10.60;99.90;;;;;;6142109;23;20217;-88
2022/12/20 01:08:20;;;;;;;1.13;1.07;;;10.60;99.90;;;;;;6191341;23;20518;-89
2022/12/20 01:10:46;;;;;;;1.57;1.47;;;10.60;99.90;;;;;;6191343;23;20626;-88
2022/12/20 01:13:12;;;;;;;2.43;2.10;;;10.60;99.90;;;;;;6142489;23;20150;-89
2022/12/20 01:15:38;;;;;;;1.93;1.53;;;10.60;99.90;;;;;;6141883;23;20232;-88
2022/12/20 01:18:03;;;;;;;1.30;1.20;;;10.60;99.90;;;;;;6166336;23;20198;-88
2022/12/20 01:20:29;;;;;;;3.00;1.33;;;10.60;99.90;;;;;;6142110;23;20186;-88
2022/12/20 01:22:55;;;;;;;2.10;1.90;;;10.60;99.90;;;;;;6141697;23;20284;-88
2022/12/20 01:25:21;;;;;;;1.80;1.70;;;10.50;99.90;;;;;;6191348;23;20169;-88
2022/12/20 01:27:46;;;;;;;4.70;2.53;;;10.50;99.90;;;;;;6141492;23;20248;-88
2022/12/20 01:30:12;;;;;;;1.93;1.80;;;10.50;99.90;;;;;;6141478;23;20651;-89
2022/12/20 01:32:38;;;;;;;1.77;1.67;;;10.40;99.90;;;;;;6141491;23;20201;-88
2022/12/20 01:35:04;;;;;;;2.73;2.43;;;10.40;99.90;;;;;;6141750;23;20201;-89
2022/12/20 01:37:30;;;;;;;2.93;1.70;;;10.30;99.90;;;;;;6141776;23;20583;-89
2022/12/20 01:39:56;;;;;;;3.80;2.20;;;10.20;99.90;;;;;;6166651;23;20151;-89
2022/12/20 01:42:21;;;;;;;2.43;1.60;;;10.20;99.90;;;;;;6141503;23;20212;-89
2022/12/20 01:44:55;;;;;;;8.83;1.90;;;10.20;99.90;;;;;;6141431;23;20221;-89
2022/12/20 01:47:21;;;;;;;2.03;1.40;;;10.20;99.90;;;;;;6190998;23;20202;-88
2022/12/20 01:49:51;;;;;;;3.27;2.20;;;10.20;99.90;;;;;;6140891;23;20201;-88
2022/12/20 01:52:30;;;;;;;1.57;1.30;;;10.10;99.90;;;;;;6167583;23;20159;-89
2022/12/20 01:55:08;;;;;;;2.47;1.47;;;10.10;99.90;;;;;;6191142;23;20170;-89
2022/12/20 01:57:41;;;;;;;2.70;2.47;;;10.10;99.90;;;;;;6190799;23;20244;-89
2022/12/20 02:00:08;;;;;;;4.60;1.40;;;10.10;99.90;;;;;;6190736;23;20253;-89
2022/12/20 02:02:35;;;;;;;3.37;1.60;;;10.20;99.90;;;;;;6166274;23;20713;-89
2022/12/20 02:05:01;;;;;;;1.80;1.70;;;10.10;99.90;;;;;;6166077;23;20197;-89
2022/12/20 02:07:29;;;;;;;4.70;2.30;;;10.20;99.90;;;;;;6166083;23;20169;-89
2022/12/20 02:09:57;;;;;;;1.43;1.33;;;10.20;99.90;;;;;;6191272;23;20154;-88
2022/12/20 02:12:25;;;;;;;1.00;0.73;;;10.20;99.90;;;;;;6190590;23;20277;-88
2022/12/20 02:15:07;;;;;;;13.80;2.40;;;10.20;99.90;;;;;;6190333;23;20198;-89
2022/12/20 02:17:43;;;;;;;2.80;2.60;;;10.20;99.90;;;;;;6190837;23;20209;-88
2022/12/20 02:20:18;;;;;;;3.63;1.40;;;10.20;99.90;;;;;;6190446;23;20225;-88
2022/12/20 02:23:10;;;;;;;2.27;2.10;;;10.30;99.90;;;;;;6190498;23;20205;-89
2022/12/20 02:25:57;;;;;;;4.30;1.70;;;10.30;99.90;;;;;;6190599;23;20533;-89
2022/12/20 02:28:54;;;;;;;1.50;1.30;;;10.30;99.90;;;;;;6190457;23;20149;-90
2022/12/20 02:31:26;;;;;;;2.37;2.07;;;10.20;99.90;;;;;;6191166;23;20173;-89
2022/12/20 02:33:56;;;;;;;1.13;1.03;;;10.20;99.90;;;;;;6190541;23;20607;-88
2022/12/20 02:36:22;;;;;;;1.87;1.77;;;10.20;99.90;;;;;;6190360;23;20199;-89
2022/12/20 02:38:48;;;;;;;1.33;1.23;;;10.20;99.90;;;;;;6190475;23;20538;-88
2022/12/20 02:41:35;;;;;;;1.53;1.43;;;10.10;99.90;;;;;;6141152;23;20522;-89
2022/12/20 02:47:07;;;;;;;0.80;0.80;;;10.10;99.90;;;;;;6216631;23;20197;-88
2022/12/20 02:49:37;;;;;;;2.47;2.27;;;10.10;99.90;;;;;;6190497;23;20200;-88
2022/12/20 02:52:05;;;;;;;2.50;1.73;;;10.00;99.90;;;;;;6190467;23;20153;-88
2022/12/20 02:54:31;;;;;;;2.40;2.20;;;10.00;99.90;;;;;;6164860;23;20194;-88
2022/12/20 02:57:22;;;;;;;1.70;1.60;;;9.90;99.90;;;;;;6164883;23;20273;-88
2022/12/20 02:59:56;;;;;;;3.33;2.30;;;9.90;99.90;;;;;;6189695;23;20281;-88
2022/12/20 03:02:24;;;;;;;1.90;1.67;;;9.90;99.90;;;;;;6189455;23;20666;-89
2022/12/20 03:04:50;;;;;;;1.73;1.63;;;9.80;99.90;;;;;;6215763;23;20194;-89
2022/12/20 03:07:16;;;;;;;1.03;0.90;;;9.80;99.90;;;;;;6165849;23;20173;-89
2022/12/20 03:09:43;;;;;;;3.90;2.13;;;9.80;99.90;;;;;;6164847;23;20202;-89
2022/12/20 03:12:12;;;;;;;2.00;1.77;;;9.70;99.90;;;;;;6189350;23;20224;-88
2022/12/20 03:14:38;;;;;;;2.33;1.73;;;9.70;99.90;;;;;;6189288;23;20204;-89
2022/12/20 03:17:05;;;;;;;2.00;1.03;;;9.70;99.90;;;;;;6140155;23;20221;-89
2022/12/20 03:19:30;;;;;;;1.43;1.23;;;9.70;99.90;;;;;;6189315;23;20464;-89
2022/12/20 03:21:56;;;;;;;3.60;1.43;;;9.70;99.90;;;;;;6141282;23;20217;-89
2022/12/20 03:24:22;;;;;;;1.37;1.27;;;9.70;99.90;;;;;;6189476;23;20209;-88
2022/12/20 03:26:48;;;;;;;4.43;1.50;;;9.70;99.90;;;;;;6164970;23;20658;-88
2022/12/20 03:29:14;;;;;;;2.00;1.50;;;9.80;99.90;;;;;;6165342;23;20531;-88
2022/12/20 03:31:39;;;;;;;1.50;1.40;;;9.80;99.90;;;;;;6164546;23;20182;-88
2022/12/20 03:34:06;;;;;;;1.30;1.20;;;9.80;99.90;;;;;;6165152;23;20241;-88
2022/12/20 03:36:32;;;;;;;2.53;1.60;;;9.80;99.90;;;;;;6140550;23;20213;-88
2022/12/20 03:38:58;;;;;;;4.30;2.10;;;9.90;99.90;;;;;;6164913;23;20209;-88
2022/12/20 03:41:24;;;;;;;2.23;1.57;;;9.80;99.90;;;;;;6164807;23;20210;-88
2022/12/20 03:43:50;;;;;;;1.93;1.80;;;9.90;99.90;;;;;;6189978;23;20530;-88
2022/12/20 03:46:16;;;;;;;1.60;1.37;;;9.90;99.90;;;;;;6165532;23;20191;-88
2022/12/20 03:48:42;;;;;;;1.33;1.23;;;9.90;99.90;;;;;;6189291;23;20194;-88
2022/12/20 03:51:09;;;;;;;1.70;1.60;;;10.00;99.90;;;;;;6189659;23;20198;-88
2022/12/20 03:53:34;;;;;;;1.60;1.50;;;10.00;99.90;;;;;;6165026;23;20243;-88
2022/12/20 03:56:00;;;;;;;4.07;1.17;;;10.00;99.90;;;;;;6140203;23;20284;-88
2022/12/20 03:58:26;;;;;;;1.27;1.17;;;10.00;99.90;;;;;;6189669;23;20158;-89
2022/12/20 04:00:52;;;;;;;1.40;1.40;;;10.10;99.90;;;;;;6165562;23;20186;-89
2022/12/20 04:03:17;;;;;;;0.93;0.93;;;10.10;99.90;;;;;;6164601;23;20546;-87
2022/12/20 04:05:43;;;;;;;1.17;1.10;;;10.10;99.90;;;;;;6140088;23;20213;-89
2022/12/20 04:08:09;;;;;;;1.93;1.83;;;10.10;99.90;;;;;;6139787;23;20204;-88
2022/12/20 04:11:14;;;;;;;0.67;0.60;;;10.10;99.90;;;;;;6140136;23;20181;-88
2022/12/20 04:13:23;;;;;;;0.93;0.87;;;10.10;99.90;;;;;;6174684;23;20212;-89
2022/12/20 04:15:49;;;;;;;2.67;1.63;;;10.20;99.90;;;;;;6167224;23;20158;-88
2022/12/20 04:18:14;;;;;;;1.53;1.37;;;10.20;99.90;;;;;;6142259;23;20194;-88
2022/12/20 04:20:40;;;;;;;2.87;1.37;;;10.20;99.90;;;;;;6166399;23;20202;-88
2022/12/20 04:23:06;;;;;;;2.03;1.87;;;10.20;99.90;;;;;;6148742;23;20210;-89
2022/12/20 04:25:31;;;;;;;2.03;1.93;;;10.20;99.90;;;;;;6112948;23;20159;-88
2022/12/20 04:27:57;;;;;;;1.57;1.47;;;10.30;99.90;;;;;;6137306;23;20246;-88
2022/12/20 04:30:23;;;;;;;0.80;0.80;;;10.30;99.90;;;;;;6112689;23;20200;-89
2022/12/20 04:32:53;;;;;;;6.20;1.40;;;10.30;99.90;;;;;;6137309;23;20195;-88
2022/12/20 04:35:19;;;;;;;1.23;1.13;;;10.30;99.90;;;;;;6114561;23;20194;-88
2022/12/20 04:37:46;;;;;;;2.27;1.40;;;10.30;99.90;;;;;;6137149;23;20546;-88
2022/12/20 04:40:12;;;;;;;1.83;1.57;;;10.30;99.90;;;;;;6113905;23;20159;-88
2022/12/20 04:42:38;;;;;;;1.70;1.60;;;10.30;99.90;;;;;;6112621;23;20210;-88
2022/12/20 04:45:04;;;;;;;2.00;1.47;;;10.40;99.90;;;;;;6112657;23;20667;-88
2022/12/20 04:47:30;;;;;;;1.07;1.07;;;10.40;99.90;;;;;;6161813;23;20202;-88
2022/12/20 04:49:55;;;;;;;1.50;1.30;;;10.40;99.90;;;;;;6137127;23;20267;-88
2022/12/20 04:55:05;;;;;;;3.07;1.27;;;10.40;99.90;;;;;;6145189;23;20258;-88
2022/12/20 04:57:31;;;;;;;2.03;1.43;;;10.40;99.90;;;;;;6112419;23;20624;-88
2022/12/20 04:59:57;;;;;;;2.37;1.30;;;10.40;99.90;;;;;;6112427;23;20268;-88
2022/12/20 05:02:22;;;;;;;2.07;1.87;;;10.50;99.90;;;;;;6112420;23;20281;-88
2022/12/20 05:04:48;;;;;;;2.47;1.20;;;10.50;99.90;;;;;;6112735;23;20195;-88
2022/12/20 05:07:14;;;;;;;2.63;1.43;;;10.50;99.90;;;;;;6137357;23;20166;-88
2022/12/20 05:09:39;;;;;;;1.97;1.23;;;10.50;99.90;;;;;;6112435;23;20281;-88
2022/12/20 05:12:05;;;;;;;1.43;1.10;;;10.50;99.90;;;;;;6112221;23;20203;-88
2022/12/20 05:14:31;;;;;;;1.00;0.90;;;10.50;99.90;;;;;;6136937;23;20253;-88
2022/12/20 05:16:57;;;;;;;1.80;1.17;;;10.50;99.90;;;;;;6112537;23;20199;-88
2022/12/20 05:19:22;;;;;;;1.77;1.23;;;10.50;99.90;;;;;;6136612;23;20162;-89
2022/12/20 05:27:21;;;;;;;2.47;1.67;;;10.60;99.90;;;;;;6174044;23;20573;-88
2022/12/20 05:29:47;;;;;;;1.10;1.00;;;10.60;99.90;;;;;;6141809;23;20194;-88
2022/12/20 05:32:12;;;;;;;0.90;0.90;;;10.60;99.90;;;;;;6141875;23;20213;-89
2022/12/20 05:34:38;;;;;;;1.10;1.10;;;10.50;99.90;;;;;;6166063;23;20162;-88
2022/12/20 05:37:04;;;;;;;1.30;1.20;;;10.60;99.90;;;;;;6142237;23;20245;-88
2022/12/20 05:39:29;;;;;;;2.10;1.63;;;10.60;99.90;;;;;;6165756;23;20198;-89
2022/12/20 05:41:55;;;;;;;3.90;1.67;;;10.60;99.90;;;;;;6141342;23;20210;-89
2022/12/20 05:44:21;;;;;;;2.57;1.33;;;10.60;99.90;;;;;;6165717;23;20319;-88
2022/12/20 05:46:47;;;;;;;3.30;1.77;;;10.70;99.90;;;;;;6166284;23;20193;-89
2022/12/20 05:49:12;;;;;;;1.70;1.60;;;10.70;99.90;;;;;;6141897;23;20158;-88
2022/12/20 05:51:38;;;;;;;0.70;0.70;;;10.70;99.90;;;;;;6165601;23;20236;-89
2022/12/20 05:54:04;;;;;;;3.27;1.63;;;10.70;99.90;;;;;;6140773;23;20204;-89
2022/12/20 05:56:30;;;;;;;1.57;1.47;;;10.80;99.90;;;;;;6139733;23;20277;-89
2022/12/20 05:58:58;;;;;;;2.53;1.23;;;10.80;99.90;;;;;;6141888;23;20256;-89
2022/12/20 06:01:24;;;;;;;1.53;1.33;;;10.80;99.90;;;;;;6166668;23;20186;-89
2022/12/20 06:03:50;;;;;;;3.27;1.10;;;10.80;99.90;;;;;;6158160;23;20196;-89
2022/12/20 06:06:17;;;;;;;1.13;1.00;;;10.80;99.90;;;;;;6141364;23;20273;-89
2022/12/20 06:08:42;;;;;;;1.53;0.90;;;10.80;99.90;;;;;;6141450;23;20194;-88
2022/12/20 06:11:08;;;;;;;1.27;1.17;;;10.80;99.90;;;;;;6166044;23;20198;-89
2022/12/20 06:13:34;;;;;;;0.80;0.80;;;10.80;99.90;;;;;;6166263;23;20488;-89
2022/12/20 06:16:00;;;;;;;3.17;1.37;;;10.80;99.90;;;;;;6142551;23;20611;-89
2022/12/20 06:18:26;;;;;;;1.83;1.73;;;10.90;99.90;;;;;;6190643;23;20217;-89
2022/12/20 06:20:53;;;;;;;2.40;1.57;;;10.80;99.90;;;;;;6165736;23;20221;-89
2022/12/20 06:23:19;;;;;;;1.87;1.67;;;10.80;99.90;;;;;;6181697;23;20214;-88
2022/12/20 06:25:45;;;;;;;2.50;1.50;;;10.90;99.90;;;;;;6166085;23;20229;-89
2022/12/20 06:28:11;;;;;;;1.20;0.87;;;10.90;99.90;;;;;;6166399;23;20154;-89
2022/12/20 06:30:37;;;;;;;1.87;1.73;;;10.90;99.90;;;;;;6165730;23;20273;-89
2022/12/20 06:33:03;;;;;;;1.93;1.80;;;10.90;99.90;;;;;;6141046;23;20636;-89
2022/12/20 06:35:29;;;;;;;1.73;1.57;;;10.90;99.90;;;;;;6165766;23;20209;-89
2022/12/20 06:37:55;;;;;;;2.00;1.90;;;10.90;99.90;;;;;;6217103;23;20197;-88
2022/12/20 06:40:22;;;;;;;2.00;1.80;;;10.90;99.90;;;;;;6167055;23;20158;-89
2022/12/20 06:42:49;;;;;;;2.60;1.70;;;10.90;99.90;;;;;;6165856;23;20201;-89
2022/12/20 06:45:15;;;;;;;3.27;2.10;;;10.90;99.90;;;;;;6140847;23;20193;-89
2022/12/20 06:47:41;;;;;;;2.63;2.00;;;10.90;99.90;;;;;;6140914;23;20186;-89
2022/12/20 06:50:07;;;;;;;2.07;1.93;;;10.90;99.90;;;;;;6165972;23;20831;-89
2022/12/20 06:52:33;;;;;;;3.50;2.70;;;10.90;99.90;;;;;;6141309;23;20162;-90
2022/12/20 06:54:59;;;;;;;1.73;1.63;;;10.90;99.90;;;;;;6142059;23;20241;-89
2022/12/20 06:57:24;;;;;;;2.67;0.90;;;10.90;99.90;;;;;;6156208;23;20201;-89
2022/12/20 06:59:50;;;;;;;3.10;2.07;;;10.90;99.90;;;;;;6164889;23;20201;-89
2022/12/20 07:02:16;;;;;;;5.67;2.50;;;10.90;99.90;;;;;;6140422;23;20654;-89
2022/12/20 07:04:42;;;;;;;2.90;2.53;;;10.90;99.90;;;;;;6165291;23;20165;-89
2022/12/20 07:07:07;;;;;;;2.10;1.70;;;10.90;99.90;;;;;;6141735;23;20217;-89
2022/12/20 07:09:33;;;;;;;3.10;1.93;;;10.80;99.90;;;;;;6140825;23;20201;-89
2022/12/20 07:11:59;;;;;;;4.27;2.87;;;10.80;99.90;;;;;;6165722;23;20194;-89
2022/12/20 07:14:25;;;;;;;3.57;1.97;;;10.80;99.90;;;;;;6141001;23;20273;-89
2022/12/20 07:16:51;;;;;;;4.53;2.40;;;10.80;99.90;;;;;;6165626;23;20190;-89
2022/12/20 07:19:16;;;;;;;2.17;1.97;;;10.70;99.90;;;;;;6141574;23;20161;-89
2022/12/20 07:21:42;;;;;;;1.53;1.37;;;10.70;99.90;;;;;;6165296;23;20197;-89
2022/12/20 07:24:09;;;;;;;1.90;1.80;;;10.70;99.90;;;;;;6165101;23;20281;-89
2022/12/20 07:26:34;;;;;;;2.57;2.37;;;10.70;99.90;;;;;;6165388;23;20635;-88
2022/12/20 07:29:00;;;;;;;4.67;2.47;;;10.60;99.90;;;;;;6140770;23;20194;-89
2022/12/20 07:31:26;;;;;;;3.03;1.70;;;10.70;99.90;;;;;;6165298;23;20158;-90
2022/12/20 07:33:52;;;;;;;1.80;1.63;;;10.70;99.90;;;;;;6165667;23;20606;-88
2022/12/20 07:36:17;;;;;;;1.53;1.43;;;10.70;99.90;;;;;;6139481;23;20225;-88
2022/12/20 07:38:43;;;;;;;3.20;1.37;;;10.70;99.90;;;;;;6140888;23;20198;-89
2022/12/20 07:41:12;;;;;;;2.30;2.13;;;10.70;99.90;;;;;;6165424;23;20244;-94
2022/12/20 07:43:38;;;;;;;2.67;2.10;;;10.60;99.90;;;;;;6189836;23;20229;-90
2022/12/20 07:46:05;;;;;;;3.60;3.10;;;10.70;99.90;;;;;;6189914;23;20150;-89
2022/12/20 07:48:31;;;;;;;2.10;1.77;;;10.70;99.90;;;;;;6189582;23;20193;-91
2022/12/20 07:51:10;;;;;;;3.63;2.33;;;10.60;99.90;;;;;;6139870;23;20205;-89
2022/12/20 07:53:41;;;;;;;3.63;2.77;;;10.70;99.90;;;;;;6189599;23;20201;-89
2022/12/20 07:56:09;;;;;;;10.43;3.70;;;10.70;99.90;;;;;;6189215;23;20218;-90
2022/12/20 07:58:38;;;;;;;6.73;4.53;;;10.70;99.90;;;;;;6164502;23;20159;-90
2022/12/20 08:01:04;;;;;;;2.10;1.90;;;10.70;99.90;;;;;;6189447;23;20178;-89
2022/12/20 08:03:36;;;;;;;1.53;1.33;;;10.70;99.90;;;;;;6164257;23;20194;-90
2022/12/20 08:06:04;;;;;;;2.03;1.20;;;10.70;99.90;;;;;;6189575;23;20526;-89
2022/12/20 08:08:37;;;;;;;1.70;1.60;;;10.80;99.90;;;;;;6165299;23;20204;-89
2022/12/20 08:11:05;;;;;;;4.10;2.00;;;10.80;99.90;;;;;;6189851;23;20201;-89
2022/12/20 08:13:32;;;;;;;2.40;2.13;;;10.80;99.90;;;;;;6189825;23;20154;-89
2022/12/20 08:15:59;;;;;;;7.87;2.70;;;10.80;99.90;;;;;;6165815;23;20241;-89
2022/12/20 08:18:25;;;;;;;3.83;1.87;;;10.80;99.90;;;;;;6140590;23;20197;-90
2022/12/20 08:20:51;;;;;;;2.77;2.07;;;10.80;99.90;;;;;;6164510;23;20267;-90
2022/12/20 08:23:18;;;;;;;4.00;1.53;;;10.80;99.90;;;;;;6164582;23;20244;-89
2022/12/20 08:25:44;;;;;;;3.10;1.60;;;10.80;99.90;;;;;;6141014;23;20654;-90
2022/12/20 08:28:10;;;;;;;2.63;2.40;;;10.80;99.90;;;;;;6165863;23;20151;-90
2022/12/20 08:30:36;;;;;;;4.90;2.30;;;10.80;99.90;;;;;;6140628;23;20193;-90
2022/12/20 08:33:02;;;;;;;1.97;1.83;;;10.80;99.90;;;;;;6189820;23;20190;-88
2022/12/20 08:35:28;;;;;;;3.47;2.17;;;10.80;99.90;;;;;;6165109;23;20190;-88
2022/12/20 08:37:54;;;;;;;2.40;1.87;;;10.90;99.90;;;;;;6165314;23;20190;-91
2022/12/20 08:40:20;;;;;;;2.47;2.27;;;10.90;99.90;;;;;;6165499;23;20154;-90
2022/12/20 08:42:46;;;;;;;2.97;1.23;;;10.90;99.90;;;;;;6140299;23;20234;-88
2022/12/20 08:45:12;;;;;;;2.03;1.63;;;11.00;99.90;;;;;;6165279;23;20235;-89
2022/12/20 08:47:38;;;;;;;2.00;1.00;;;11.00;99.90;;;;;;6140510;23;20190;-89
2022/12/20 08:50:04;;;;;;;4.27;1.73;;;11.00;99.90;;;;;;6165319;23;20247;-89
2022/12/20 08:52:31;;;;;;;1.60;1.50;;;11.00;99.90;;;;;;6140804;23;20166;-89
2022/12/20 08:54:57;;;;;;;1.27;1.20;;;11.10;99.90;;;;;;6190290;23;20602;-89
2022/12/20 08:57:22;;;;;;;2.87;2.37;;;11.10;99.90;;;;;;6164899;23;20198;-89
2022/12/20 08:59:48;;;;;;;2.20;1.57;;;11.10;99.90;;;;;;6141048;23;20654;-89
2022/12/20 09:02:14;;;;;;;1.83;1.47;;;11.10;99.90;;;;;;6141780;23;20201;-90
2022/12/20 09:04:39;;;;;;;1.50;1.40;;;11.20;99.90;;;;;;6166751;23;20162;-89
2022/12/20 09:07:05;;;;;;;0.90;0.87;;;11.20;99.90;;;;;;6144566;23;20158;-93
2022/12/20 09:09:31;;;;;;;2.17;1.93;;;11.20;99.90;;;;;;6191507;23;20198;-90
2022/12/20 09:11:57;;;;;;;1.50;1.40;;;11.30;99.90;;;;;;6166563;23;20194;-90
2022/12/20 09:14:23;;;;;;;2.07;1.87;;;11.30;99.90;;;;;;6141576;23;20626;-90
2022/12/20 09:16:48;;;;;;;1.77;1.37;;;11.30;99.90;;;;;;6141835;23;20216;-89
2022/12/20 09:19:14;;;;;;;1.80;1.67;;;11.30;99.90;;;;;;6142627;23;20154;-89
2022/12/20 09:21:40;;;;;;;2.03;1.77;;;11.30;99.90;;;;;;6166282;23;20264;-88
2022/12/20 09:24:06;;;;;;;1.83;1.63;;;11.30;99.90;;;;;;6158073;23;20210;-89
2022/12/20 09:26:34;;;;;;;1.77;1.47;;;11.30;99.90;;;;;;6141985;23;20214;-90
2022/12/20 09:29:00;;;;;;;0.90;0.90;;;11.40;99.90;;;;;;6166950;23;20194;-89
2022/12/20 09:31:26;;;;;;;3.20;0.93;;;11.40;99.90;;;;;;6167117;23;20170;-90
2022/12/20 09:33:54;;;;;;;1.17;1.07;;;11.40;99.90;;;;;;6142720;23;20528;-90
2022/12/20 09:36:21;;;;;;;1.87;1.77;;;11.40;99.90;;;;;;6166281;23;20530;-91
2022/12/20 09:38:47;;;;;;;1.00;0.90;;;11.40;99.90;;;;;;6166230;23;20198;-90
2022/12/20 09:41:31;;;;;;;1.73;1.63;;;11.50;99.90;;;;;;6142249;23;20202;-90
2022/12/20 09:43:59;;;;;;;1.47;1.23;;;11.50;99.90;;;;;;6191182;23;20185;-90
2022/12/20 09:46:26;;;;;;;1.73;1.10;;;11.50;99.90;;;;;;6191188;23;20154;-90
2022/12/20 09:48:52;;;;;;;2.80;1.40;;;11.40;99.90;;;;;;6166978;23;20155;-89
2022/12/20 09:51:53;;;;;;;2.07;1.43;;;11.50;99.90;;;;;;6166061;23;20301;-90
2022/12/20 09:54:41;;;;;;;5.43;2.07;;;11.50;99.90;;;;;;6191017;23;20197;-89
2022/12/20 09:57:17;;;;;;;1.97;1.47;;;11.40;99.90;;;;;;6191083;23;20534;-90
2022/12/20 09:59:43;;;;;;;4.73;1.50;;;11.40;99.90;;;;;;6191194;23;20208;-89
2022/12/20 10:02:15;;;;;;;4.53;1.27;;;11.40;99.90;;;;;;6190820;23;20206;-90
2022/12/20 10:04:41;;;;;;;0.37;0.37;;;11.40;99.90;;;;;;6190931;23;20158;-88
2022/12/20 10:07:28;;;;;;;2.23;1.10;;;11.50;99.90;;;;;;6142584;23;20166;-89
2022/12/20 10:10:27;;;;;;;4.77;1.27;;;11.50;99.90;;;;;;6191071;23;20495;-89
2022/12/20 10:13:27;;;;;;;2.47;1.40;;;11.50;99.90;;;;;;6191153;23;20198;-88
2022/12/20 10:16:06;;;;;;;1.67;1.57;;;11.40;99.90;;;;;;6190950;23;20484;-89
2022/12/20 10:18:55;;;;;;;1.43;1.33;;;11.40;99.90;;;;;;6190533;23;20256;-89
2022/12/20 10:21:50;;;;;;;2.37;1.30;;;11.40;99.90;;;;;;6190784;23;20334;-90
2022/12/20 10:24:19;;;;;;;2.10;1.07;;;11.40;99.90;;;;;;6181575;23;20787;-90
2022/12/20 10:26:48;;;;;;;2.70;1.30;;;11.40;99.90;;;;;;6190522;23;20198;-89
2022/12/20 10:29:14;;;;;;;0.77;0.77;;;11.40;99.90;;;;;;6217029;23;20194;-89
2022/12/20 10:31:40;;;;;;;2.27;1.43;;;11.40;99.90;;;;;;6165909;23;20162;-91
2022/12/20 10:34:06;;;;;;;1.70;1.40;;;11.40;99.90;;;;;;6166321;23;20670;-89
2022/12/20 10:36:36;;;;;;;1.50;1.40;;;11.40;99.90;;;;;;6165750;23;20197;-89
2022/12/20 10:39:08;;;;;;;1.20;1.10;;;11.30;99.90;;;;;;6190365;23;20198;-89
2022/12/20 10:41:40;;;;;;;2.00;1.80;;;11.30;99.90;;;;;;6165443;23;20276;-89
2022/12/20 10:44:25;;;;;;;1.10;0.97;;;11.30;99.90;;;;;;6190361;23;20280;-89
2022/12/20 10:46:54;;;;;;;4.17;1.97;;;11.30;99.90;;;;;;6165664;23;20201;-89
2022/12/20 10:49:32;;;;;;;3.17;1.87;;;11.30;99.90;;;;;;6191322;23;20188;-89
2022/12/20 10:52:07;;;;;;;0.90;0.90;;;11.30;99.90;;;;;;6190576;23;20194;-90
2022/12/20 10:54:44;;;;;;;0.90;0.90;;;11.30;99.90;;;;;;6190477;23;20203;-90
2022/12/20 10:57:16;;;;;;;1.37;1.10;;;11.30;99.90;;;;;;6190249;23;20198;-89
2022/12/20 11:00:04;;;;;;;0.73;0.73;;;11.30;99.90;;;;;;6190556;23;20286;-89
2022/12/20 11:02:33;;;;;;;5.30;1.10;;;11.20;99.90;;;;;;6189960;23;20734;-90
2022/12/20 11:05:02;;;;;;;1.70;1.60;;;11.30;99.90;;;;;;6190093;23;20206;-89
2022/12/20 11:07:30;;;;;;;2.10;1.50;;;11.20;99.90;;;;;;6216716;23;20181;-89
2022/12/20 11:09:58;;;;;;;1.13;0.73;;;11.20;99.90;;;;;;6190648;23;20158;-91
2022/12/20 11:12:24;;;;;;;1.37;1.27;;;11.20;99.90;;;;;;6190106;23;20194;-88
2022/12/20 11:15:11;;;;;;;1.23;1.13;;;11.10;99.90;;;;;;6165330;23;20190;-89
2022/12/20 11:17:59;;;;;;;2.00;1.80;;;11.10;99.90;;;;;;6189925;23;20217;-89
2022/12/20 11:20:34;;;;;;;1.40;1.30;;;11.10;99.90;;;;;;6214208;23;20198;-89
2022/12/20 11:23:25;;;;;;;1.00;0.93;;;11.10;99.90;;;;;;6189465;23;20214;-89
2022/12/20 11:26:24;;;;;;;1.60;1.50;;;11.10;99.90;;;;;;6216555;23;20194;-89
2022/12/20 11:29:01;;;;;;;1.27;1.17;;;11.10;99.90;;;;;;6143481;23;20198;-89
2022/12/20 11:31:43;;;;;;;1.53;1.20;;;11.00;99.90;;;;;;6190177;23;20138;-89
2022/12/20 11:34:15;;;;;;;1.70;1.20;;;10.90;99.90;;;;;;6190955;23;20193;-89
2022/12/20 11:36:51;;;;;;;1.20;1.10;;;10.90;99.90;;;;;;6190424;23;20215;-89
2022/12/20 11:39:35;;;;;;;2.43;2.23;;;10.80;99.90;;;;;;6190130;23;20203;-89
2022/12/20 11:42:09;;;;;;;2.53;1.67;;;10.80;99.90;;;;;;6190130;23;20197;-89
2022/12/20 11:44:56;;;;;;;1.50;1.40;;;10.80;99.90;;;;;;6189864;23;20583;-89
2022/12/20 11:47:32;;;;;;;1.70;1.20;;;10.80;99.90;;;;;;6189702;23;20221;-89
2022/12/20 11:50:30;;;;;;;8.17;2.23;;;10.80;99.90;;;;;;6180696;23;20209;-90
2022/12/20 11:53:03;;;;;;;2.10;1.67;;;10.80;99.90;;;;;;6170610;23;20531;-89
2022/12/20 11:55:34;;;;;;;2.20;1.07;;;10.80;99.90;;;;;;6189429;23;20162;-89
2022/12/20 11:58:17;;;;;;;3.80;1.53;;;10.70;99.90;;;;;;6190098;23;20142;-88
2022/12/20 12:00:51;;;;;;;1.57;1.47;;;10.70;99.90;;;;;;6189751;23;20198;-89
2022/12/20 12:03:35;;;;;;;2.60;1.90;;;10.70;99.90;;;;;;6189898;23;20281;-89
2022/12/20 12:06:27;;;;;;;2.77;1.77;;;10.70;99.90;;;;;;6189852;23;20281;-91
2022/12/20 12:09:31;;;;;;;2.20;1.90;;;10.70;99.90;;;;;;6189477;23;20197;-89
2022/12/20 12:12:11;;;;;;;1.87;1.77;;;10.70;99.90;;;;;;6189749;23;20609;-88
2022/12/20 12:14:59;;;;;;;2.30;2.00;;;10.80;99.90;;;;;;6189311;23;20205;-89
2022/12/20 12:17:43;;;;;;;1.73;1.63;;;10.70;99.90;;;;;;6189739;23;20201;-89
2022/12/20 12:20:32;;;;;;;1.73;1.63;;;10.70;99.90;;;;;;6189740;23;20573;-89
2022/12/20 12:23:15;;;;;;;2.20;2.10;;;10.70;99.90;;;;;;6189355;23;20222;-89
2022/12/20 12:25:41;;;;;;;3.73;2.37;;;10.70;99.90;;;;;;6189321;23;20154;-89
2022/12/20 12:28:13;;;;;;;2.13;1.93;;;10.70;99.90;;;;;;6165364;23;20575;-88
2022/12/20 12:30:44;;;;;;;3.10;2.43;;;10.70;99.90;;;;;;6189725;23;20227;-88
2022/12/20 12:33:19;;;;;;;2.20;1.80;;;10.70;99.90;;;;;;6189591;23;20198;-89
2022/12/20 12:36:13;;;;;;;4.77;2.47;;;10.70;99.90;;;;;;6191472;23;20193;-89
2022/12/20 12:39:10;;;;;;;3.63;2.67;;;10.70;99.90;;;;;;6191369;23;20209;-89
2022/12/20 12:41:51;;;;;;;2.20;2.10;;;10.70;99.90;;;;;;6191521;23;20206;-89
2022/12/20 12:44:27;;;;;;;3.10;2.33;;;10.70;99.90;;;;;;6191645;23;20281;-90
2022/12/20 12:47:01;;;;;;;9.73;2.10;;;10.70;99.90;;;;;;6191536;23;20209;-89
2022/12/20 12:49:29;;;;;;;2.87;2.40;;;10.70;99.90;;;;;;6191514;23;20152;-90
2022/12/20 12:51:59;;;;;;;2.47;2.27;;;10.70;99.90;;;;;;6192189;23;20154;-90
2022/12/20 12:54:34;;;;;;;3.53;2.23;;;10.70;99.90;;;;;;6191327;23;20194;-90
2022/12/20 12:57:18;;;;;;;2.10;1.83;;;10.70;99.90;;;;;;6190733;23;20193;-90
2022/12/20 12:59:46;;;;;;;2.33;2.13;;;10.60;99.90;;;;;;6166503;23;20194;-89
2022/12/20 13:02:12;;;;;;;4.07;2.40;;;10.60;99.90;;;;;;6191340;23;20278;-89
2022/12/20 13:05:05;;;;;;;2.43;1.97;;;10.60;99.90;;;;;;6191239;23;20606;-89
2022/12/20 13:07:36;;;;;;;2.70;2.33;;;10.60;99.90;;;;;;6191657;23;20143;-90
2022/12/20 13:10:23;;;;;;;3.47;2.57;;;10.60;99.90;;;;;;6192032;23;20489;-90
2022/12/20 13:12:49;;;;;;;1.70;1.60;;;10.60;99.90;;;;;;6139346;23;20190;-89
2022/12/20 13:15:18;;;;;;;3.20;1.80;;;10.60;99.90;;;;;;6190715;23;20209;-89